Time;durP1;ratioP1;P1;durP2;ratioP2;P2;SDS_P1;SDS_P2;PMS_P1;PMS_P2;Temp;Humidity;BMP_temperature;BMP_pressure;BME280_temperature;BME280_humidity;BME280_pressure;Samples;Min_cycle;Max_cycle;Signal;HPM_P1;HPM_P2
2023/06/14 00:00:44;;;;;;;3.67;2.05;;;16.90;91.40;;;;;;5140535;27;20046;-67
2023/06/14 00:03:11;;;;;;;2.47;2.08;;;16.20;91.40;;;;;;5138171;27;20123;-66
2023/06/14 00:05:42;;;;;;;3.33;2.40;;;16.90;92.50;;;;;;5145231;27;20054;-66
2023/06/14 00:08:09;;;;;;;1.98;1.80;;;16.90;92.60;;;;;;5145853;27;20522;-68
2023/06/14 00:10:35;;;;;;;4.15;1.90;;;16.80;92.90;;;;;;5142845;27;20955;-66
2023/06/14 00:13:04;;;;;;;4.05;1.98;;;16.80;92.40;;;;;;5145109;27;20053;-66
2023/06/14 00:15:33;;;;;;;3.60;2.25;;;16.70;92.00;;;;;;5143180;27;20064;-66
2023/06/14 00:18:00;;;;;;;5.25;2.80;;;16.70;91.90;;;;;;5142756;27;20122;-68
2023/06/14 00:20:32;;;;;;;2.28;1.83;;;16.70;91.90;;;;;;5137353;27;20055;-66
2023/06/14 00:22:58;;;;;;;2.90;2.47;;;16.60;92.10;;;;;;5137268;27;20069;-66
2023/06/14 00:25:27;;;;;;;2.97;2.50;;;16.60;92.00;;;;;;5136375;27;20544;-66
2023/06/14 00:27:57;;;;;;;3.67;2.58;;;16.60;92.60;;;;;;5138227;27;20053;-67
2023/06/14 00:30:23;;;;;;;3.42;3.10;;;16.60;93.20;;;;;;5143914;27;20053;-66
2023/06/14 00:32:49;;;;;;;2.70;2.30;;;16.50;92.10;;;;;;5142276;27;20043;-68
2023/06/14 00:35:15;;;;;;;5.47;3.38;;;16.40;92.40;;;;;;5142207;27;20042;-66
2023/06/14 00:37:41;;;;;;;6.00;3.38;;;16.40;92.20;;;;;;5136463;27;20746;-68
2023/06/14 00:40:07;;;;;;;6.72;3.75;;;16.30;92.00;;;;;;5134539;27;20799;-68
2023/06/14 00:42:33;;;;;;;4.20;3.50;;;16.20;92.50;;;;;;5125902;27;20126;-67
2023/06/14 00:45:00;;;;;;;6.40;4.40;;;16.20;93.20;;;;;;5124483;27;20502;-66
2023/06/14 00:47:26;;;;;;;5.57;4.30;;;16.20;93.30;;;;;;5138117;27;20061;-67
2023/06/14 00:49:55;;;;;;;4.47;3.92;;;16.20;93.50;;;;;;5132795;27;20097;-67
2023/06/14 00:52:21;;;;;;;5.30;4.72;;;16.10;94.00;;;;;;5143723;27;20050;-66
2023/06/14 00:54:48;;;;;;;5.57;4.78;;;16.10;93.80;;;;;;5143676;27;20097;-68
2023/06/14 00:57:14;;;;;;;5.82;5.22;;;16.00;94.30;;;;;;5122558;27;20046;-66
2023/06/14 00:59:47;;;;;;;7.63;5.05;;;16.00;94.40;;;;;;5097661;27;20039;-66
2023/06/14 01:02:16;;;;;;;7.25;5.07;;;16.00;94.60;;;;;;5127765;27;20062;-67
2023/06/14 01:04:48;;;;;;;6.15;4.70;;;15.90;95.10;;;;;;5133562;27;20050;-68
2023/06/14 01:07:47;;;;;;;5.97;5.07;;;15.90;95.20;;;;;;5116586;27;20085;-65
2023/06/14 01:10:28;;;;;;;5.30;4.88;;;15.90;95.60;;;;;;5115500;27;20078;-67
2023/06/14 01:13:12;;;;;;;4.80;4.22;;;15.80;95.70;;;;;;5134546;27;20078;-67
2023/06/14 01:15:40;;;;;;;5.78;4.07;;;15.70;95.50;;;;;;5106078;27;20509;-68
2023/06/14 01:18:06;;;;;;;5.80;3.67;;;15.70;95.90;;;;;;5123868;27;20104;-66
2023/06/14 01:20:36;;;;;;;5.60;4.72;;;15.60;95.90;;;;;;5137279;27;20058;-67
2023/06/14 01:23:02;;;;;;;5.70;3.97;;;15.60;96.10;;;;;;5142784;27;20581;-67
2023/06/14 01:25:28;;;;;;;9.30;4.40;;;15.70;96.80;;;;;;5141041;27;20051;-65
2023/06/14 01:27:58;;;;;;;7.10;4.90;;;15.60;96.90;;;;;;5122567;27;20058;-67
2023/06/14 01:30:25;;;;;;;7.40;4.55;;;15.60;96.50;;;;;;5122745;27;20129;-65
2023/06/14 01:32:53;;;;;;;8.40;4.93;;;15.60;96.80;;;;;;5131795;27;20117;-65
2023/06/14 01:35:18;;;;;;;5.13;4.20;;;15.50;97.00;;;;;;5128512;27;20043;-65
2023/06/14 01:37:47;;;;;;;6.25;5.15;;;15.50;97.20;;;;;;5121514;27;20092;-66
2023/06/14 01:40:15;;;;;;;6.95;5.00;;;15.50;97.70;;;;;;5121262;27;20078;-66
2023/06/14 01:42:42;;;;;;;6.00;4.38;;;15.50;97.90;;;;;;5128967;27;20465;-65
2023/06/14 01:45:09;;;;;;;6.72;4.00;;;15.40;98.00;;;;;;5111421;27;20082;-66
2023/06/14 01:47:36;;;;;;;5.05;4.15;;;15.40;98.50;;;;;;5122618;27;20121;-66
2023/06/14 01:50:05;;;;;;;4.05;3.60;;;15.40;98.60;;;;;;5125926;27;20161;-65
2023/06/14 01:52:31;;;;;;;6.10;3.17;;;15.40;98.60;;;;;;5124501;27;20134;-65
2023/06/14 01:54:57;;;;;;;6.57;3.45;;;15.40;99.10;;;;;;5123391;27;20050;-66
2023/06/14 01:57:25;;;;;;;3.97;3.17;;;15.40;99.60;;;;;;5142042;27;20129;-66
2023/06/14 01:59:50;;;;;;;3.38;2.97;;;15.30;99.90;;;;;;5140850;27;20043;-66
2023/06/14 02:02:16;;;;;;;3.95;2.97;;;15.30;99.90;;;;;;5142589;27;20050;-66
2023/06/14 02:04:42;;;;;;;5.72;2.63;;;15.30;99.90;;;;;;5121724;27;20125;-66
2023/06/14 02:07:08;;;;;;;5.50;3.15;;;15.30;99.90;;;;;;5142356;27;20051;-66
2023/06/14 02:09:35;;;;;;;3.53;2.63;;;15.30;99.90;;;;;;5132133;27;20126;-66
2023/06/14 02:12:01;;;;;;;4.60;2.80;;;15.30;99.90;;;;;;5136221;27;20051;-67
2023/06/14 02:14:27;;;;;;;5.47;2.97;;;15.30;99.90;;;;;;5139796;27;20061;-66
2023/06/14 02:16:53;;;;;;;5.88;2.63;;;15.20;99.90;;;;;;5130939;27;20043;-65
2023/06/14 02:19:20;;;;;;;2.83;2.47;;;15.20;99.90;;;;;;5133348;27;20162;-66
2023/06/14 02:21:46;;;;;;;5.60;2.45;;;15.20;99.90;;;;;;5108650;27;20127;-66
2023/06/14 02:24:13;;;;;;;5.18;2.72;;;15.10;99.90;;;;;;5112714;27;20090;-66
2023/06/14 02:26:39;;;;;;;3.13;2.80;;;15.00;99.90;;;;;;5127317;27;20043;-65
2023/06/14 02:29:05;;;;;;;3.63;2.20;;;15.00;99.90;;;;;;5117435;27;20585;-66
2023/06/14 02:31:32;;;;;;;2.70;2.33;;;14.90;99.90;;;;;;5137434;27;20051;-65
2023/06/14 02:33:58;;;;;;;5.10;2.30;;;14.90;99.90;;;;;;5127544;27;20051;-66
2023/06/14 02:36:24;;;;;;;4.85;2.78;;;14.80;99.90;;;;;;5103414;27;20061;-66
2023/06/14 02:38:50;;;;;;;2.13;1.92;;;14.70;99.90;;;;;;5115857;27;20125;-65
2023/06/14 02:41:16;;;;;;;3.70;2.30;;;14.70;99.90;;;;;;5128152;27;20053;-65
2023/06/14 02:43:43;;;;;;;4.90;2.80;;;14.60;99.90;;;;;;5140245;27;20073;-65
2023/06/14 02:46:08;;;;;;;2.72;2.20;;;14.60;99.90;;;;;;5138504;27;20050;-65
2023/06/14 02:48:34;;;;;;;6.88;3.08;;;14.50;99.90;;;;;;5135968;27;20147;-65
2023/06/14 02:51:00;;;;;;;2.58;2.38;;;14.50;99.90;;;;;;5126605;27;20054;-66
2023/06/14 02:53:25;;;;;;;3.67;2.47;;;14.50;99.90;;;;;;5118531;27;20046;-65
2023/06/14 02:55:52;;;;;;;3.22;1.92;;;14.50;99.90;;;;;;5130486;27;20751;-66
2023/06/14 02:58:18;;;;;;;4.65;2.55;;;14.40;99.90;;;;;;5122223;27;20093;-65
2023/06/14 03:00:44;;;;;;;6.20;3.03;;;14.40;99.90;;;;;;5125205;27;20510;-66
2023/06/14 03:03:13;;;;;;;3.30;3.00;;;14.40;99.90;;;;;;5135916;27;20039;-65
2023/06/14 03:05:49;;;;;;;4.18;2.70;;;14.30;99.90;;;;;;5131159;27;20451;-67
2023/06/14 03:08:18;;;;;;;2.92;2.53;;;14.30;99.90;;;;;;5127592;27;20055;-66
2023/06/14 03:10:46;;;;;;;5.10;3.00;;;14.30;99.90;;;;;;5135475;27;20050;-67
2023/06/14 03:13:12;;;;;;;3.55;2.28;;;14.30;99.90;;;;;;5121433;27;20059;-66
2023/06/14 03:15:41;;;;;;;5.00;2.63;;;14.30;99.90;;;;;;5134237;27;20763;-67
2023/06/14 03:18:09;;;;;;;4.75;2.40;;;14.30;99.90;;;;;;5135133;27;20374;-66
2023/06/14 03:20:36;;;;;;;5.03;2.95;;;14.30;99.90;;;;;;5129069;27;20053;-65
2023/06/14 03:23:02;;;;;;;4.47;2.60;;;14.30;99.90;;;;;;5141301;27;20054;-66
2023/06/14 03:25:32;;;;;;;4.80;3.10;;;14.30;99.90;;;;;;5117077;28;20728;-65
2023/06/14 03:27:58;;;;;;;4.68;2.50;;;14.30;99.90;;;;;;5120890;27;20057;-65
2023/06/14 03:30:24;;;;;;;3.63;2.95;;;14.30;99.90;;;;;;5138747;27;20038;-65
2023/06/14 03:32:52;;;;;;;4.22;2.60;;;14.20;99.90;;;;;;5141303;27;20402;-66
2023/06/14 03:35:19;;;;;;;5.65;2.67;;;14.30;99.90;;;;;;5139003;27;20142;-66
2023/06/14 03:37:46;;;;;;;3.72;2.60;;;14.20;99.90;;;;;;5131636;27;20091;-66
2023/06/14 03:40:14;;;;;;;4.35;3.03;;;14.20;99.90;;;;;;5138335;27;20702;-66
2023/06/14 03:42:40;;;;;;;6.78;2.97;;;14.30;99.90;;;;;;5145104;27;20113;-66
2023/06/14 03:45:07;;;;;;;3.38;2.88;;;14.30;99.90;;;;;;5142193;27;20051;-65
2023/06/14 03:47:33;;;;;;;3.00;2.60;;;14.40;99.90;;;;;;5132814;27;20100;-66
2023/06/14 03:50:00;;;;;;;3.42;3.13;;;14.30;99.90;;;;;;5129058;27;20823;-66
2023/06/14 03:52:26;;;;;;;4.90;2.90;;;14.40;99.90;;;;;;5124996;27;20159;-65
2023/06/14 03:54:51;;;;;;;3.53;2.78;;;14.40;99.90;;;;;;5127298;27;21303;-66
2023/06/14 03:57:17;;;;;;;4.55;2.97;;;14.50;99.90;;;;;;5135921;27;20047;-68
2023/06/14 03:59:43;;;;;;;4.82;3.35;;;14.50;99.90;;;;;;5139630;27;20034;-65
2023/06/14 04:02:09;;;;;;;7.28;3.30;;;14.50;99.90;;;;;;5144202;27;20093;-65
2023/06/14 04:04:35;;;;;;;4.07;2.88;;;14.50;99.90;;;;;;5122990;27;20039;-67
2023/06/14 04:07:03;;;;;;;3.97;3.05;;;14.50;99.90;;;;;;5144417;27;20121;-66
2023/06/14 04:09:29;;;;;;;3.75;3.03;;;14.60;99.90;;;;;;5143490;27;20050;-65
2023/06/14 04:11:56;;;;;;;3.95;3.40;;;14.60;99.90;;;;;;5144464;27;20607;-66
2023/06/14 04:14:21;;;;;;;4.40;3.30;;;14.60;99.90;;;;;;5140283;27;20039;-65
2023/06/14 04:16:49;;;;;;;6.57;3.63;;;14.70;99.90;;;;;;5124283;27;20095;-67
2023/06/14 04:19:15;;;;;;;6.38;3.35;;;14.70;99.90;;;;;;5137607;27;20043;-65
2023/06/14 04:21:41;;;;;;;4.80;3.60;;;14.70;99.90;;;;;;5122780;27;20058;-65
2023/06/14 04:24:06;;;;;;;3.95;3.45;;;14.70;99.90;;;;;;5135857;27;20059;-66
2023/06/14 04:26:33;;;;;;;4.00;3.60;;;14.80;99.90;;;;;;5139126;27;20047;-67
2023/06/14 04:29:02;;;;;;;8.05;3.78;;;14.90;99.90;;;;;;5137541;27;20540;-66
2023/06/14 04:31:29;;;;;;;7.13;4.35;;;14.90;99.90;;;;;;5119144;27;20059;-65
2023/06/14 04:33:56;;;;;;;7.53;3.50;;;14.90;99.90;;;;;;5135616;27;20601;-66
2023/06/14 04:36:22;;;;;;;6.03;4.00;;;15.00;99.90;;;;;;5124245;27;20046;-67
2023/06/14 04:38:49;;;;;;;5.65;4.65;;;15.00;99.90;;;;;;5125885;27;20090;-65
2023/06/14 04:41:15;;;;;;;5.57;4.50;;;15.10;99.90;;;;;;5121131;27;20082;-65
2023/06/14 04:43:42;;;;;;;6.72;4.70;;;15.10;99.90;;;;;;5139859;27;20119;-65
2023/06/14 04:46:10;;;;;;;10.32;4.55;;;15.20;99.90;;;;;;5110887;27;20525;-67
2023/06/14 04:48:42;;;;;;;7.45;4.40;;;15.20;99.90;;;;;;5138381;27;20055;-67
2023/06/14 04:51:09;;;;;;;5.50;4.28;;;15.30;99.90;;;;;;5137245;27;20513;-67
2023/06/14 04:53:35;;;;;;;5.03;4.53;;;15.40;99.90;;;;;;5129592;27;20139;-65
2023/06/14 04:56:01;;;;;;;4.93;4.00;;;15.40;99.90;;;;;;5111986;27;20355;-65
2023/06/14 04:58:28;;;;;;;5.45;3.67;;;15.50;99.90;;;;;;5109144;27;20627;-67
2023/06/14 05:00:55;;;;;;;8.95;4.57;;;15.50;99.90;;;;;;5111091;27;20046;-67
2023/06/14 05:03:22;;;;;;;4.82;3.58;;;15.50;99.90;;;;;;5123672;27;20404;-65
2023/06/14 05:05:48;;;;;;;6.70;4.25;;;15.60;99.90;;;;;;5142210;27;20046;-68
2023/06/14 05:08:14;;;;;;;5.85;3.80;;;15.70;99.90;;;;;;5123721;27;20483;-66
2023/06/14 05:10:39;;;;;;;6.60;3.67;;;15.70;99.90;;;;;;5115188;27;20046;-65
2023/06/14 05:13:05;;;;;;;5.25;4.32;;;15.80;99.90;;;;;;5123586;27;20115;-66
2023/06/14 05:15:31;;;;;;;5.10;3.10;;;15.80;99.90;;;;;;5131963;27;20095;-66
2023/06/14 05:17:56;;;;;;;5.65;4.00;;;15.90;99.90;;;;;;5142363;27;20051;-66
2023/06/14 05:20:26;;;;;;;6.70;4.03;;;15.90;99.90;;;;;;5131366;27;20064;-66
2023/06/14 05:22:53;;;;;;;6.65;4.50;;;16.00;99.90;;;;;;5138440;27;20039;-67
2023/06/14 05:25:22;;;;;;;5.25;3.85;;;16.10;99.90;;;;;;5134438;27;20509;-65
2023/06/14 05:27:48;;;;;;;4.53;3.92;;;16.20;99.90;;;;;;5124596;27;20061;-67
2023/06/14 05:30:15;;;;;;;5.03;3.80;;;16.30;99.90;;;;;;5139380;27;20047;-67
2023/06/14 05:32:41;;;;;;;5.55;3.55;;;16.30;99.90;;;;;;5130592;27;20115;-67
2023/06/14 05:35:07;;;;;;;6.97;3.72;;;16.40;99.90;;;;;;5135342;27;20107;-67
2023/06/14 05:37:33;;;;;;;6.35;3.95;;;16.50;99.90;;;;;;5143328;27;20047;-67
2023/06/14 05:39:59;;;;;;;8.32;5.10;;;16.60;99.90;;;;;;5133016;27;20048;-68
2023/06/14 05:42:25;;;;;;;5.30;3.85;;;16.70;99.90;;;;;;5142375;27;20078;-66
2023/06/14 05:44:50;;;;;;;4.07;3.67;;;16.80;99.90;;;;;;5124119;27;20146;-67
2023/06/14 05:47:16;;;;;;;6.43;3.80;;;16.90;99.90;;;;;;5122889;27;20137;-66
2023/06/14 05:49:42;;;;;;;4.07;3.67;;;17.10;99.90;;;;;;5122590;27;20091;-68
2023/06/14 05:52:08;;;;;;;6.63;3.80;;;17.20;99.90;;;;;;5110522;27;20057;-65
2023/06/14 05:54:34;;;;;;;4.35;3.70;;;17.40;99.90;;;;;;5141757;27;20553;-67
2023/06/14 05:57:01;;;;;;;4.28;3.35;;;17.50;99.90;;;;;;5112115;27;20043;-68
2023/06/14 05:59:27;;;;;;;5.13;3.28;;;17.70;99.40;;;;;;5130994;27;20073;-68
2023/06/14 06:01:53;;;;;;;5.13;3.63;;;17.90;99.10;;;;;;5139481;27;20054;-68
2023/06/14 06:04:19;;;;;;;4.03;3.45;;;18.10;98.70;;;;;;5128424;27;20188;-67
2023/06/14 06:06:46;;;;;;;8.88;3.75;;;18.20;98.50;;;;;;5133571;27;20054;-67
2023/06/14 06:09:14;;;;;;;3.53;3.10;;;18.50;98.50;;;;;;5124370;27;20122;-67
2023/06/14 06:11:40;;;;;;;6.15;3.60;;;18.60;97.90;;;;;;5122623;27;20047;-67
2023/06/14 06:14:05;;;;;;;4.45;3.40;;;18.80;98.40;;;;;;5139792;27;20068;-67
2023/06/14 06:16:31;;;;;;;8.88;4.15;;;19.10;98.80;;;;;;5132559;27;20050;-67
2023/06/14 06:18:57;;;;;;;7.05;3.40;;;19.50;98.90;;;;;;5134683;27;20055;-67
2023/06/14 06:21:22;;;;;;;9.43;3.80;;;20.70;97.40;;;;;;5112570;27;20063;-67
2023/06/14 06:23:48;;;;;;;6.38;3.17;;;22.60;95.20;;;;;;5136971;27;20046;-69
2023/06/14 06:26:14;;;;;;;6.65;3.10;;;23.20;93.30;;;;;;5122520;27;20570;-68
2023/06/14 06:28:40;;;;;;;5.80;3.17;;;24.00;92.10;;;;;;5106166;27;20042;-68
2023/06/14 06:31:06;;;;;;;4.60;3.30;;;24.70;91.50;;;;;;5141869;27;20047;-68
2023/06/14 06:33:31;;;;;;;3.67;2.80;;;25.40;90.50;;;;;;5124506;27;20128;-68
2023/06/14 06:35:57;;;;;;;4.60;2.70;;;25.90;88.60;;;;;;5128036;27;20039;-68
2023/06/14 06:38:23;;;;;;;3.70;2.72;;;26.40;88.20;;;;;;5133871;27;20046;-67
2023/06/14 06:40:49;;;;;;;8.05;3.00;;;26.90;86.50;;;;;;5128238;27;20134;-67
2023/06/14 06:43:16;;;;;;;3.47;2.50;;;27.20;84.50;;;;;;5140998;27;20050;-67
2023/06/14 06:45:42;;;;;;;4.47;2.83;;;27.40;83.60;;;;;;5121264;27;20050;-65
2023/06/14 06:48:10;;;;;;;4.47;2.75;;;27.60;82.90;;;;;;5137032;27;20050;-66
2023/06/14 06:50:36;;;;;;;3.72;2.63;;;27.90;81.40;;;;;;5121923;27;20050;-67
2023/06/14 06:53:02;;;;;;;3.90;2.70;;;28.00;80.40;;;;;;5104428;27;20828;-66
2023/06/14 06:55:28;;;;;;;3.92;2.60;;;28.30;79.40;;;;;;5141480;27;20093;-67
2023/06/14 06:57:54;;;;;;;4.97;2.65;;;28.20;77.60;;;;;;5140133;27;20049;-67
2023/06/14 07:00:21;;;;;;;3.95;2.45;;;28.40;77.80;;;;;;5141931;27;20055;-66
2023/06/14 07:02:46;;;;;;;5.20;2.63;;;28.50;77.20;;;;;;5127727;27;20058;-66
2023/06/14 07:05:13;;;;;;;2.28;2.08;;;28.60;75.10;;;;;;5121310;27;20043;-67
2023/06/14 07:07:38;;;;;;;3.05;2.38;;;28.50;74.20;;;;;;5126488;27;20502;-67
2023/06/14 07:10:05;;;;;;;2.75;2.47;;;28.40;74.10;;;;;;5110860;27;20130;-67
2023/06/14 07:12:33;;;;;;;6.13;2.50;;;28.60;73.80;;;;;;5127065;27;20046;-66
2023/06/14 07:14:59;;;;;;;3.67;2.58;;;28.70;72.60;;;;;;5122746;27;20043;-66
2023/06/14 07:17:25;;;;;;;4.20;2.72;;;28.80;71.80;;;;;;5134731;27;20048;-66
2023/06/14 07:19:51;;;;;;;4.80;2.88;;;29.00;72.00;;;;;;5103926;27;20448;-66
2023/06/14 07:22:17;;;;;;;2.67;2.30;;;29.10;71.50;;;;;;5124185;27;20062;-67
2023/06/14 07:24:44;;;;;;;2.53;2.30;;;29.10;71.80;;;;;;5123184;27;20074;-66
2023/06/14 07:27:10;;;;;;;3.67;2.35;;;29.20;71.00;;;;;;5114331;27;20448;-66
2023/06/14 07:29:36;;;;;;;5.40;2.30;;;29.10;70.30;;;;;;5124179;27;20071;-66
2023/06/14 07:32:02;;;;;;;4.32;2.22;;;29.00;69.30;;;;;;5123421;27;20653;-66
2023/06/14 07:34:27;;;;;;;5.18;3.30;;;29.00;69.90;;;;;;5105552;28;20119;-67
2023/06/14 07:36:54;;;;;;;2.47;2.28;;;29.40;69.70;;;;;;5136784;27;20776;-67
2023/06/14 07:39:19;;;;;;;4.20;2.33;;;29.50;69.70;;;;;;5129892;27;20407;-66
2023/06/14 07:41:45;;;;;;;2.78;2.40;;;29.90;69.50;;;;;;5138312;27;20035;-66
2023/06/14 07:44:12;;;;;;;5.82;2.55;;;29.90;68.00;;;;;;5141483;27;20082;-67
2023/06/14 07:46:38;;;;;;;3.55;2.45;;;30.10;68.50;;;;;;5121859;27;20047;-69
2023/06/14 07:49:04;;;;;;;4.43;2.60;;;30.10;68.50;;;;;;5124850;27;20035;-66
2023/06/14 07:51:29;;;;;;;2.38;2.17;;;29.90;67.90;;;;;;5128488;27;20039;-69
2023/06/14 07:53:56;;;;;;;3.60;2.58;;;30.10;68.30;;;;;;5115830;28;20475;-66
2023/06/14 07:56:23;;;;;;;3.22;2.40;;;30.00;67.10;;;;;;5098369;27;20043;-69
2023/06/14 07:58:48;;;;;;;3.58;2.65;;;29.70;66.40;;;;;;5133258;27;20103;-67
2023/06/14 08:01:15;;;;;;;2.80;2.45;;;29.60;66.60;;;;;;5138853;27;20050;-67
2023/06/14 08:03:40;;;;;;;16.17;2.75;;;29.70;66.70;;;;;;5140605;27;20049;-66
2023/06/14 08:06:07;;;;;;;4.47;2.28;;;29.80;65.50;;;;;;5128961;27;20474;-66
2023/06/14 08:08:32;;;;;;;4.05;2.35;;;29.80;65.50;;;;;;5113554;27;20047;-68
2023/06/14 08:10:58;;;;;;;3.95;2.35;;;30.00;65.90;;;;;;5129830;27;20045;-67
2023/06/14 08:13:24;;;;;;;4.50;2.33;;;29.90;65.30;;;;;;5132679;27;20376;-66
2023/06/14 08:15:53;;;;;;;3.70;2.30;;;29.80;65.10;;;;;;5139890;27;20483;-67
2023/06/14 08:18:19;;;;;;;6.13;3.03;;;29.70;65.00;;;;;;5141442;27;20046;-67
2023/06/14 08:20:45;;;;;;;4.70;2.25;;;29.60;64.90;;;;;;5129766;27;20062;-66
2023/06/14 08:23:11;;;;;;;2.47;2.28;;;29.70;65.20;;;;;;5129734;27;20102;-67
2023/06/14 08:25:37;;;;;;;4.97;2.10;;;29.80;64.60;;;;;;5124086;27;20135;-67
2023/06/14 08:28:02;;;;;;;1.98;1.88;;;29.60;64.40;;;;;;5136933;27;20050;-68
2023/06/14 08:30:28;;;;;;;3.83;2.00;;;29.50;64.10;;;;;;5106687;27;20608;-66
2023/06/14 08:32:56;;;;;;;4.05;2.40;;;29.60;64.60;;;;;;5137654;27;20045;-68
2023/06/14 08:35:22;;;;;;;2.80;1.80;;;29.70;64.10;;;;;;5138280;27;20054;-66
2023/06/14 08:37:49;;;;;;;1.88;1.77;;;29.70;63.50;;;;;;5140503;27;20183;-67
2023/06/14 08:40:22;;;;;;;2.58;1.83;;;29.70;64.40;;;;;;5143712;27;20051;-66
2023/06/14 08:42:52;;;;;;;2.13;1.88;;;29.70;63.00;;;;;;5144929;27;20114;-66
2023/06/14 08:45:23;;;;;;;2.72;2.03;;;29.40;62.90;;;;;;5142497;27;20050;-66
2023/06/14 08:47:57;;;;;;;3.28;2.97;;;29.20;63.00;;;;;;5144521;27;20095;-67
2023/06/14 08:50:30;;;;;;;4.07;2.33;;;29.40;64.00;;;;;;5130967;27;20086;-66
2023/06/14 08:53:01;;;;;;;3.17;2.15;;;29.30;63.90;;;;;;5130339;27;20043;-69
2023/06/14 08:55:32;;;;;;;2.30;2.10;;;29.20;63.00;;;;;;5124319;27;20057;-66
2023/06/14 08:57:58;;;;;;;3.80;2.40;;;29.30;63.50;;;;;;5136250;27;20050;-67
2023/06/14 09:00:25;;;;;;;3.95;2.10;;;29.30;63.90;;;;;;5131997;27;20110;-67
2023/06/14 09:02:57;;;;;;;5.63;2.40;;;29.20;64.30;;;;;;5130107;27;20058;-66
2023/06/14 09:05:24;;;;;;;4.50;2.55;;;29.40;64.50;;;;;;5099123;27;20055;-67
2023/06/14 09:07:50;;;;;;;4.60;2.35;;;29.50;64.40;;;;;;5136711;27;20043;-68
2023/06/14 09:10:16;;;;;;;2.42;2.22;;;29.40;63.90;;;;;;5133772;27;20058;-66
2023/06/14 09:12:43;;;;;;;5.55;2.13;;;29.80;64.20;;;;;;5137268;27;20098;-66
2023/06/14 09:15:10;;;;;;;2.92;1.85;;;29.30;63.50;;;;;;5144300;27;20084;-67
2023/06/14 09:17:36;;;;;;;2.33;2.10;;;29.00;63.20;;;;;;5142858;27;20059;-66
2023/06/14 09:20:08;;;;;;;3.53;2.20;;;29.20;62.90;;;;;;5134093;27;20043;-67
2023/06/14 09:22:35;;;;;;;4.70;2.22;;;29.00;62.10;;;;;;5143839;27;20115;-67
2023/06/14 09:25:01;;;;;;;4.35;2.05;;;29.00;63.00;;;;;;5119510;27;20039;-69
2023/06/14 09:27:28;;;;;;;3.05;2.67;;;28.90;63.30;;;;;;5120797;27;20063;-66
2023/06/14 09:29:54;;;;;;;4.95;2.20;;;29.10;63.90;;;;;;5134809;27;20053;-68
2023/06/14 09:32:21;;;;;;;4.05;2.17;;;29.20;63.00;;;;;;5114009;27;20486;-67
2023/06/14 09:34:47;;;;;;;2.65;2.20;;;29.30;63.20;;;;;;5133006;27;20046;-66
2023/06/14 09:37:12;;;;;;;3.72;2.00;;;29.30;62.80;;;;;;5124667;27;20050;-68
2023/06/14 09:39:50;;;;;;;4.55;2.22;;;29.30;62.80;;;;;;5143909;27;20043;-66
2023/06/14 09:42:18;;;;;;;2.60;2.17;;;29.40;62.40;;;;;;5142113;27;20053;-66
2023/06/14 09:44:48;;;;;;;3.67;2.20;;;29.00;62.70;;;;;;5143526;27;20113;-67
2023/06/14 09:47:17;;;;;;;2.38;1.70;;;28.70;62.90;;;;;;5106815;27;20097;-66
2023/06/14 09:49:43;;;;;;;2.67;1.75;;;28.60;63.50;;;;;;5129775;27;20046;-67
2023/06/14 09:52:18;;;;;;;4.18;2.38;;;28.30;63.00;;;;;;5122935;27;20438;-67
2023/06/14 09:54:48;;;;;;;6.18;2.20;;;28.10;62.60;;;;;;5128513;27;20078;-68
2023/06/14 09:57:16;;;;;;;4.00;2.10;;;28.20;62.90;;;;;;5123321;27;20047;-67
2023/06/14 09:59:43;;;;;;;6.47;2.35;;;28.10;63.00;;;;;;5117521;27;20093;-66
2023/06/14 10:02:32;;;;;;;4.50;2.33;;;28.30;63.90;;;;;;5123254;27;20050;-67
2023/06/14 10:05:10;;;;;;;3.17;2.10;;;28.30;63.10;;;;;;5136476;27;20043;-66
2023/06/14 10:07:53;;;;;;;2.88;1.67;;;28.20;63.30;;;;;;5117565;27;20388;-66
2023/06/14 10:10:19;;;;;;;3.15;1.80;;;28.40;63.30;;;;;;5138880;27;20042;-66
2023/06/14 10:12:45;;;;;;;3.15;1.92;;;28.30;62.70;;;;;;5141655;27;20145;-66
2023/06/14 10:15:28;;;;;;;2.55;1.95;;;28.40;62.70;;;;;;5111296;27;20407;-67
2023/06/14 10:17:59;;;;;;;3.35;2.00;;;28.60;63.30;;;;;;5131314;27;20042;-67
2023/06/14 10:20:39;;;;;;;2.13;1.70;;;28.70;62.50;;;;;;5114570;27;20073;-66
2023/06/14 10:23:18;;;;;;;2.78;1.88;;;28.70;62.20;;;;;;5131338;27;20128;-67
2023/06/14 10:25:43;;;;;;;5.43;2.10;;;28.60;62.20;;;;;;5141172;27;20102;-66
2023/06/14 10:28:16;;;;;;;5.97;1.67;;;28.10;62.10;;;;;;5142208;27;20046;-66
2023/06/14 10:31:21;;;;;;;2.25;1.40;;;28.20;61.60;;;;;;5142899;27;20042;-66
2023/06/14 10:33:50;;;;;;;2.42;1.20;;;28.20;61.50;;;;;;5131190;27;20101;-67
2023/06/14 10:36:22;;;;;;;4.30;1.70;;;28.30;60.50;;;;;;5127753;27;20046;-67
2023/06/14 10:39:00;;;;;;;4.38;1.80;;;27.70;61.70;;;;;;5119072;27;20636;-67
2023/06/14 10:41:29;;;;;;;1.58;0.98;;;27.70;61.40;;;;;;5128048;27;20094;-66
2023/06/14 10:44:15;;;;;;;6.47;1.60;;;27.90;61.50;;;;;;5097455;27;20808;-66
2023/06/14 10:46:52;;;;;;;2.00;1.80;;;28.00;60.60;;;;;;5107082;27;20066;-67
2023/06/14 10:49:44;;;;;;;1.80;1.15;;;28.00;60.00;;;;;;5101637;27;20062;-66
2023/06/14 10:52:20;;;;;;;2.55;1.20;;;27.90;59.80;;;;;;5126619;27;20039;-66
2023/06/14 10:55:18;;;;;;;1.65;1.40;;;27.70;59.30;;;;;;5122323;27;20054;-66
2023/06/14 10:57:55;;;;;;;1.73;1.30;;;27.80;60.30;;;;;;5110781;27;20114;-66
2023/06/14 11:00:25;;;;;;;1.63;1.38;;;27.80;59.50;;;;;;5114917;27;20728;-69
2023/06/14 11:03:28;;;;;;;2.40;1.30;;;27.80;60.00;;;;;;5137764;27;20039;-69
2023/06/14 11:05:55;;;;;;;2.85;1.83;;;27.70;59.70;;;;;;5128445;27;20054;-69
2023/06/14 11:08:42;;;;;;;2.78;1.42;;;27.50;59.20;;;;;;5139356;27;20038;-67
2023/06/14 11:11:09;;;;;;;2.17;1.40;;;27.40;59.40;;;;;;5132420;27;20077;-67
2023/06/14 11:13:45;;;;;;;1.85;1.50;;;27.20;59.80;;;;;;5135816;27;20046;-67
2023/06/14 11:16:16;;;;;;;1.85;1.60;;;27.20;60.60;;;;;;5134133;27;20034;-68
2023/06/14 11:18:42;;;;;;;3.70;1.67;;;27.20;59.80;;;;;;5135276;27;20047;-68
2023/06/14 11:21:08;;;;;;;3.20;1.67;;;27.20;59.70;;;;;;5132422;27;20108;-69
2023/06/14 11:23:35;;;;;;;2.35;1.70;;;27.10;59.90;;;;;;5124205;27;20058;-68
2023/06/14 11:26:01;;;;;;;2.72;1.60;;;27.00;60.40;;;;;;5121656;27;20498;-68
2023/06/14 11:28:40;;;;;;;2.83;1.60;;;27.00;60.20;;;;;;5122212;27;20050;-69
2023/06/14 11:31:06;;;;;;;1.75;1.42;;;26.90;59.90;;;;;;5131148;27;20491;-69
2023/06/14 11:33:33;;;;;;;1.92;1.77;;;26.70;59.70;;;;;;5125548;27;20046;-67
2023/06/14 11:36:03;;;;;;;2.28;1.45;;;26.70;60.00;;;;;;5099617;28;20082;-67
2023/06/14 11:38:29;;;;;;;4.13;1.50;;;26.60;60.80;;;;;;5120288;27;20583;-69
2023/06/14 11:41:00;;;;;;;3.10;1.70;;;26.70;61.10;;;;;;5098195;28;20046;-68
2023/06/14 11:43:26;;;;;;;3.67;1.90;;;26.60;61.10;;;;;;5114181;27;20050;-67
2023/06/14 11:45:52;;;;;;;2.00;1.63;;;26.50;60.80;;;;;;5110992;27;20042;-67
2023/06/14 11:48:18;;;;;;;4.97;2.20;;;26.30;60.50;;;;;;5108628;27;20845;-67
2023/06/14 11:50:44;;;;;;;2.42;1.70;;;26.20;60.40;;;;;;5110228;27;20548;-68
2023/06/14 11:53:10;;;;;;;2.85;1.75;;;26.30;61.30;;;;;;5123809;27;20915;-67
2023/06/14 11:55:40;;;;;;;3.28;1.88;;;26.40;61.50;;;;;;5109722;27;20123;-68
2023/06/14 11:58:06;;;;;;;3.30;1.75;;;26.50;62.30;;;;;;5131823;27;20049;-67
2023/06/14 12:00:32;;;;;;;2.92;2.00;;;26.50;61.10;;;;;;5140557;27;20129;-67
2023/06/14 12:02:59;;;;;;;5.00;1.70;;;26.30;61.40;;;;;;5141228;27;20047;-67
2023/06/14 12:05:26;;;;;;;3.47;2.00;;;26.40;61.80;;;;;;5143286;27;20494;-68
2023/06/14 12:08:02;;;;;;;4.38;1.85;;;26.40;61.60;;;;;;5140663;27;20122;-68
2023/06/14 12:10:29;;;;;;;4.00;1.90;;;26.50;62.00;;;;;;5141862;27;20095;-67
2023/06/14 12:12:59;;;;;;;2.20;1.60;;;26.40;61.10;;;;;;5143244;27;20046;-67
2023/06/14 12:15:28;;;;;;;3.65;1.70;;;26.40;62.20;;;;;;5143102;27;20051;-68
2023/06/14 12:17:54;;;;;;;2.28;1.80;;;26.20;62.20;;;;;;5140516;27;20050;-66
2023/06/14 12:20:21;;;;;;;4.70;1.75;;;26.50;62.00;;;;;;5125598;27;20054;-66
2023/06/14 12:22:52;;;;;;;1.95;1.85;;;26.50;61.40;;;;;;5125001;27;20061;-66
2023/06/14 12:25:31;;;;;;;3.65;2.10;;;26.70;61.50;;;;;;5121421;27;20582;-66
2023/06/14 12:28:04;;;;;;;2.90;1.75;;;26.80;61.80;;;;;;5116188;27;20054;-67
2023/06/14 12:30:29;;;;;;;2.13;1.83;;;27.00;62.10;;;;;;5124034;27;20604;-67
2023/06/14 12:32:55;;;;;;;2.10;1.92;;;27.00;62.00;;;;;;5135606;27;20047;-66
2023/06/14 12:35:21;;;;;;;3.80;1.90;;;26.70;61.70;;;;;;5136806;27;20119;-67
2023/06/14 12:37:46;;;;;;;2.55;1.92;;;26.90;62.40;;;;;;5134616;27;20179;-66
2023/06/14 12:40:13;;;;;;;2.28;2.00;;;27.00;61.90;;;;;;5136947;27;20166;-67
2023/06/14 12:42:40;;;;;;;3.85;2.00;;;27.20;62.00;;;;;;5143185;27;20852;-67
2023/06/14 12:45:06;;;;;;;1.55;1.42;;;27.20;61.50;;;;;;5141965;27;20167;-67
2023/06/14 12:47:32;;;;;;;3.03;2.00;;;27.10;61.80;;;;;;5116837;27;20063;-67
2023/06/14 12:49:57;;;;;;;3.10;2.15;;;27.20;61.00;;;;;;5120283;27;20103;-67
2023/06/14 12:52:23;;;;;;;3.30;1.88;;;27.40;61.40;;;;;;5142895;27;20046;-67